createdAt,value
2017-05-29T00:01:04.241Z,56.50
2017-05-29T00:03:33.294Z,56.60
2017-05-29T00:06:02.389Z,57.00
2017-05-29T00:08:31.444Z,57.30
2017-05-29T00:11:00.567Z,58.10
2017-05-29T00:13:29.609Z,57.70
2017-05-29T00:15:58.874Z,57.90
2017-05-29T00:18:27.935Z,58.00
2017-05-29T00:20:57.078Z,58.30
2017-05-29T00:23:26.265Z,58.60
2017-05-29T00:25:55.366Z,58.90
2017-05-29T00:28:24.444Z,59.00
2017-05-29T00:30:53.490Z,59.00
2017-05-29T00:33:22.553Z,59.00
2017-05-29T00:35:51.637Z,59.10
2017-05-29T00:38:20.844Z,59.40
2017-05-29T00:40:49.897Z,60.70
2017-05-29T00:43:18.949Z,60.70
2017-05-29T00:45:48.121Z,61.20
2017-05-29T00:48:17.169Z,61.70
2017-05-29T00:50:46.233Z,62.00
2017-05-29T00:53:15.386Z,62.50
2017-05-29T00:55:44.480Z,62.70
2017-05-29T00:58:13.572Z,63.20
2017-05-29T01:00:42.741Z,63.70
2017-05-29T01:03:11.793Z,63.60
2017-05-29T01:05:40.879Z,64.10
2017-05-29T01:08:09.947Z,64.60
2017-05-29T01:10:39.053Z,64.50
2017-05-29T01:13:08.250Z,65.10
2017-05-29T01:15:37.305Z,65.20
2017-05-29T01:18:06.362Z,66.10
2017-05-29T01:20:35.456Z,66.60
2017-05-29T01:23:04.546Z,67.00
2017-05-29T01:25:33.648Z,67.50
2017-05-29T01:28:02.722Z,67.90
2017-05-29T01:30:31.901Z,68.50
2017-05-29T01:33:00.959Z,68.60
2017-05-29T01:35:30.072Z,68.90
2017-05-29T01:37:59.140Z,69.10
2017-05-29T01:40:28.189Z,69.40
2017-05-29T01:42:57.265Z,69.40
2017-05-29T01:45:26.322Z,69.50
2017-05-29T01:47:55.393Z,70.20
2017-05-29T01:50:24.540Z,70.40
2017-05-29T01:52:53.641Z,70.70
2017-05-29T01:55:22.833Z,70.60
2017-05-29T01:57:51.984Z,69.90
2017-05-29T02:00:21.048Z,71.10
2017-05-29T02:02:50.125Z,70.20
2017-05-29T02:05:19.187Z,70.30
2017-05-29T02:07:48.278Z,70.60
2017-05-29T02:10:17.495Z,70.90
2017-05-29T02:12:46.707Z,71.20
2017-05-29T02:15:15.747Z,71.00
2017-05-29T02:17:44.900Z,69.60
2017-05-29T02:20:14.003Z,70.30
2017-05-29T02:22:43.074Z,69.60
2017-05-29T02:25:12.117Z,70.40
2017-05-29T02:27:41.295Z,70.70
2017-05-29T02:30:10.384Z,70.70
2017-05-29T02:32:39.480Z,70.80
2017-05-29T02:35:08.517Z,70.80
2017-05-29T02:37:37.684Z,70.50
2017-05-29T02:40:06.790Z,70.40
2017-05-29T02:42:35.877Z,69.60
2017-05-29T02:45:04.933Z,70.60
2017-05-29T02:47:33.969Z,70.80
2017-05-29T02:50:03.038Z,71.10
2017-05-29T02:52:32.143Z,71.10
2017-05-29T02:55:01.236Z,71.10
2017-05-29T02:57:30.350Z,71.00
2017-05-29T02:59:59.446Z,70.90
2017-05-29T03:02:28.533Z,70.40
2017-05-29T03:04:57.603Z,71.00
2017-05-29T03:07:26.661Z,70.90
2017-05-29T03:09:55.821Z,70.20
2017-05-29T03:12:24.926Z,71.10
2017-05-29T03:14:54.014Z,71.30
2017-05-29T03:17:23.108Z,72.20
2017-05-29T03:19:52.155Z,70.80
2017-05-29T03:22:21.395Z,70.70
2017-05-29T03:24:50.445Z,71.00
2017-05-29T03:27:19.512Z,71.20
2017-05-29T03:29:48.598Z,70.70
2017-05-29T03:32:17.684Z,71.10
2017-05-29T03:34:46.788Z,69.10
2017-05-29T03:37:15.876Z,68.80
2017-05-29T03:39:44.972Z,69.70
2017-05-29T03:42:14.152Z,68.00
2017-05-29T03:44:43.169Z,68.00
2017-05-29T03:47:12.366Z,69.20
2017-05-29T03:49:41.479Z,70.00
2017-05-29T03:52:10.516Z,69.90
2017-05-29T03:54:39.657Z,69.00
2017-05-29T03:57:08.748Z,68.80
2017-05-29T03:59:37.829Z,68.60
2017-05-29T04:02:06.895Z,68.30
2017-05-29T04:04:36.044Z,68.40
2017-05-29T04:07:05.090Z,68.40
2017-05-29T04:09:34.238Z,68.50
2017-05-29T04:12:03.300Z,68.30
2017-05-29T04:14:32.338Z,68.30
2017-05-29T04:17:01.501Z,68.20
2017-05-29T04:19:30.612Z,68.30
2017-05-29T04:21:59.716Z,67.60
2017-05-29T04:24:28.752Z,67.90
2017-05-29T04:26:57.825Z,68.20
2017-05-29T04:29:26.882Z,67.30
2017-05-29T04:31:56.006Z,66.50
2017-05-29T04:34:25.091Z,66.60
2017-05-29T04:36:54.133Z,66.20
2017-05-29T04:39:23.194Z,65.90
2017-05-29T04:41:52.271Z,65.70
2017-05-29T04:44:21.353Z,64.80
2017-05-29T04:46:50.465Z,64.50
2017-05-29T04:49:19.506Z,63.70
2017-05-29T04:54:24.102Z,63.10
2017-05-29T04:56:53.157Z,62.20
2017-05-29T04:59:22.288Z,62.10
2017-05-29T05:01:51.349Z,61.00
2017-05-29T05:04:20.491Z,61.00
2017-05-29T05:06:49.564Z,60.70
2017-05-29T05:09:18.674Z,59.90
2017-05-29T05:11:47.773Z,59.20
2017-05-29T05:14:16.873Z,59.00
2017-05-29T05:16:45.917Z,57.00
2017-05-29T05:19:15.057Z,57.60
2017-05-29T05:21:44.101Z,55.30
2017-05-29T05:24:13.273Z,55.90
2017-05-29T05:26:42.351Z,55.90
2017-05-29T05:29:11.395Z,55.20
2017-05-29T05:31:40.488Z,55.10
2017-05-29T05:34:09.642Z,54.40
2017-05-29T05:36:38.710Z,51.70
2017-05-29T05:39:07.760Z,54.10
2017-05-29T05:41:36.851Z,51.60
2017-05-29T05:44:05.920Z,51.40
2017-05-29T05:46:34.965Z,51.90
2017-05-29T05:49:04.111Z,51.90
2017-05-29T05:51:33.158Z,51.50
2017-05-29T05:54:02.233Z,50.70
2017-05-29T05:56:31.277Z,50.70
2017-05-29T05:59:00.336Z,50.30
2017-05-29T06:01:29.382Z,49.60
2017-05-29T06:03:58.441Z,49.10
2017-05-29T06:06:27.480Z,50.40
2017-05-29T06:08:56.882Z,49.50
2017-05-29T06:11:25.982Z,49.30
2017-05-29T06:13:55.064Z,49.30
2017-05-29T06:16:24.149Z,49.10
2017-05-29T06:18:53.180Z,48.50
2017-05-29T06:21:22.253Z,49.00
2017-05-29T06:23:51.356Z,48.20
2017-05-29T06:26:20.469Z,48.00
2017-05-29T06:28:49.526Z,48.00
2017-05-29T06:31:18.581Z,47.80
2017-05-29T06:33:47.646Z,46.80
2017-05-29T06:36:16.740Z,47.20
2017-05-29T06:38:45.790Z,47.50
2017-05-29T06:41:14.936Z,47.10
2017-05-29T06:43:43.981Z,47.10
2017-05-29T06:46:13.116Z,45.70
2017-05-29T06:48:42.156Z,46.30
2017-05-29T06:51:11.308Z,45.10
2017-05-29T06:53:40.378Z,45.20
2017-05-29T06:56:09.435Z,45.60
2017-05-29T06:58:38.493Z,45.70
2017-05-29T07:01:07.589Z,46.10
2017-05-29T07:03:36.651Z,45.80
2017-05-29T07:06:05.702Z,45.20
2017-05-29T07:08:34.818Z,45.00
2017-05-29T07:11:03.878Z,45.40
2017-05-29T07:16:08.364Z,46.20
2017-05-29T07:18:37.427Z,45.70
2017-05-29T07:21:06.468Z,45.60
2017-05-29T07:23:34.851Z,45.60
2017-05-29T07:26:03.848Z,44.70
2017-05-29T07:28:32.916Z,44.60
2017-05-29T07:31:02.074Z,45.20
2017-05-29T07:33:31.142Z,45.10
2017-05-29T07:36:00.277Z,45.10
2017-05-29T07:38:29.358Z,44.70
2017-05-29T07:40:58.449Z,45.20
2017-05-29T07:43:27.557Z,45.50
2017-05-29T07:45:56.620Z,45.10
2017-05-29T07:48:25.796Z,45.40
2017-05-29T07:50:54.949Z,45.70
2017-05-29T07:53:24.032Z,45.80
2017-05-29T07:55:53.103Z,47.00
2017-05-29T07:58:22.244Z,46.20
2017-05-29T08:00:51.304Z,47.10
2017-05-29T08:03:20.353Z,46.60
2017-05-29T08:05:49.528Z,46.10
2017-05-29T08:08:18.632Z,46.30
2017-05-29T08:10:47.706Z,46.90
2017-05-29T08:13:16.792Z,46.60
2017-05-29T08:15:45.821Z,46.50
2017-05-29T08:18:15.019Z,46.50
2017-05-29T08:20:44.062Z,46.30
2017-05-29T08:23:13.115Z,46.00
2017-05-29T08:25:42.192Z,47.10
2017-05-29T08:28:11.351Z,46.70
2017-05-29T08:30:40.484Z,46.40
2017-05-29T08:33:09.556Z,46.10
2017-05-29T08:35:38.624Z,46.90
2017-05-29T08:38:07.772Z,46.50
2017-05-29T08:40:36.861Z,46.70
2017-05-29T08:43:05.901Z,46.90
2017-05-29T08:45:34.956Z,47.40
2017-05-29T08:48:04.049Z,47.00
2017-05-29T08:50:33.119Z,47.10
2017-05-29T08:53:02.166Z,47.60
2017-05-29T08:55:31.229Z,47.30
2017-05-29T08:58:00.311Z,47.80
2017-05-29T09:00:29.432Z,47.20
2017-05-29T09:02:58.518Z,47.60
2017-05-29T09:05:27.589Z,48.10
2017-05-29T09:07:56.649Z,47.80
2017-05-29T09:10:25.724Z,48.90
2017-05-29T09:12:54.796Z,48.00
2017-05-29T09:15:23.918Z,47.90
2017-05-29T09:17:52.968Z,48.70
2017-05-29T09:20:22.018Z,48.60
2017-05-29T09:22:51.081Z,48.10
2017-05-29T09:25:20.179Z,47.90
2017-05-29T09:27:49.261Z,47.90
2017-05-29T09:30:18.368Z,47.80
2017-05-29T09:32:47.464Z,47.20
2017-05-29T09:35:16.544Z,47.70
2017-05-29T09:37:45.653Z,47.30
2017-05-29T09:40:14.769Z,47.20
2017-05-29T09:42:43.845Z,46.90
2017-05-29T09:45:12.920Z,48.40
2017-05-29T09:47:41.975Z,47.80
2017-05-29T09:50:11.117Z,46.70
2017-05-29T09:52:40.233Z,47.20
2017-05-29T09:55:09.320Z,46.70
2017-05-29T09:57:38.378Z,45.90
2017-05-29T10:00:07.563Z,46.50
2017-05-29T10:02:36.712Z,46.20
2017-05-29T10:05:05.806Z,46.30
2017-05-29T10:07:34.885Z,45.80
2017-05-29T10:10:03.930Z,46.00
2017-05-29T10:12:33.080Z,46.50
2017-05-29T10:15:02.124Z,45.80
2017-05-29T10:17:31.280Z,45.00
2017-05-29T10:20:00.376Z,44.60
2017-05-29T10:22:29.446Z,44.80
2017-05-29T10:24:58.492Z,45.50
2017-05-29T10:27:27.755Z,44.20
2017-05-29T10:29:56.792Z,45.00
2017-05-29T10:32:25.851Z,44.00
2017-05-29T10:34:54.893Z,43.90
2017-05-29T10:37:23.994Z,44.00
2017-05-29T10:39:53.055Z,43.60
2017-05-29T10:42:22.129Z,41.80
2017-05-29T10:44:51.230Z,41.60
2017-05-29T10:47:20.421Z,41.00
2017-05-29T10:49:49.536Z,41.30
2017-05-29T10:52:18.579Z,41.90
2017-05-29T10:54:47.640Z,39.80
2017-05-29T10:57:16.712Z,39.90
2017-05-29T10:59:45.761Z,38.20
2017-05-29T11:02:14.812Z,40.30
2017-05-29T11:04:43.869Z,40.50
2017-05-29T11:07:12.918Z,39.10
2017-05-29T11:09:42.089Z,38.80
2017-05-29T11:12:11.194Z,37.80
2017-05-29T11:14:40.253Z,38.50
2017-05-29T11:17:09.382Z,38.50
2017-05-29T11:19:38.480Z,37.80
2017-05-29T11:22:07.565Z,36.80
2017-05-29T11:24:36.661Z,36.60
2017-05-29T11:27:05.721Z,37.00
2017-05-29T11:29:34.857Z,37.10
2017-05-29T11:32:03.918Z,37.90
2017-05-29T11:34:33.051Z,37.40
2017-05-29T11:37:02.146Z,37.50
2017-05-29T11:39:31.178Z,38.40
2017-05-29T11:42:00.235Z,37.10
2017-05-29T11:44:29.292Z,36.90
2017-05-29T11:46:58.964Z,37.30
2017-05-29T11:49:28.146Z,38.10
2017-05-29T11:51:57.194Z,38.20
2017-05-29T11:54:26.343Z,37.20
2017-05-29T11:56:55.397Z,38.00
2017-05-29T11:59:24.478Z,37.20
2017-05-29T12:01:53.560Z,36.60
2017-05-29T12:04:22.676Z,36.50
2017-05-29T12:06:51.756Z,35.10
2017-05-29T12:09:20.853Z,32.90
2017-05-29T12:11:49.944Z,29.10
2017-05-29T12:14:18.993Z,27.50
2017-05-29T12:16:48.133Z,26.00
2017-05-29T12:19:17.181Z,25.60
2017-05-29T12:21:46.343Z,23.60
2017-05-29T12:24:15.411Z,21.90
2017-05-29T12:26:44.549Z,22.90
2017-05-29T12:29:13.573Z,22.40
2017-05-29T12:31:42.718Z,22.90
2017-05-29T12:34:11.780Z,21.90
2017-05-29T12:36:41.160Z,21.40
2017-05-29T12:39:10.310Z,20.60
2017-05-29T12:41:39.508Z,20.20
2017-05-29T12:44:08.601Z,21.20
2017-05-29T12:46:37.651Z,22.10
2017-05-29T12:49:06.797Z,20.70
2017-05-29T12:51:35.893Z,20.30
2017-05-29T12:54:04.961Z,19.70
2017-05-29T12:56:34.014Z,19.70
2017-05-29T12:59:03.204Z,18.90
2017-05-29T13:01:32.291Z,19.00
2017-05-29T13:04:01.474Z,20.20
2017-05-29T13:06:30.532Z,21.00
2017-05-29T13:08:59.671Z,22.20
2017-05-29T13:11:28.786Z,23.50
2017-05-29T13:13:57.858Z,24.90
2017-05-29T13:16:26.931Z,25.20
2017-05-29T13:18:56.154Z,23.60
2017-05-29T13:21:25.465Z,22.70
2017-05-29T13:23:54.561Z,22.20
2017-05-29T13:26:23.645Z,23.10
2017-05-29T13:28:52.740Z,22.20
2017-05-29T13:31:21.839Z,22.60
2017-05-29T13:33:50.948Z,22.90
2017-05-29T13:36:20.029Z,22.40
2017-05-29T13:38:49.127Z,22.10
2017-05-29T13:41:18.226Z,22.50
2017-05-29T13:43:47.278Z,22.00
2017-05-29T13:46:16.375Z,21.80
2017-05-29T13:48:45.428Z,22.70
2017-05-29T13:51:14.609Z,22.30
2017-05-29T13:53:43.697Z,21.80
2017-05-29T13:56:12.805Z,22.00
2017-05-29T13:58:41.857Z,21.10
2017-05-29T14:01:11.002Z,22.60
2017-05-29T14:03:40.091Z,22.90
2017-05-29T14:06:09.181Z,21.80
2017-05-29T14:08:38.275Z,21.40
2017-05-29T14:11:07.350Z,22.70
2017-05-29T14:13:36.426Z,23.10
2017-05-29T14:16:05.571Z,22.50
2017-05-29T14:18:34.633Z,23.00
2017-05-29T14:21:03.779Z,22.10
2017-05-29T14:23:32.880Z,23.30
2017-05-29T14:26:01.926Z,23.70
2017-05-29T14:28:31.051Z,24.00
2017-05-29T14:31:00.197Z,24.70
2017-05-29T14:33:29.339Z,23.50
2017-05-29T14:35:58.397Z,24.30
2017-05-29T14:38:27.433Z,25.10
2017-05-29T14:40:56.502Z,25.70
2017-05-29T14:43:25.644Z,26.70
2017-05-29T14:45:54.773Z,28.70
2017-05-29T14:48:23.864Z,28.90
2017-05-29T14:50:53.019Z,29.90
2017-05-29T14:53:22.067Z,30.50
2017-05-29T14:55:51.149Z,30.20
2017-05-29T14:58:20.197Z,30.30
2017-05-29T15:00:49.429Z,31.00
2017-05-29T15:03:18.563Z,31.70
2017-05-29T15:05:47.634Z,31.70
2017-05-29T15:08:16.727Z,32.10
2017-05-29T15:10:45.937Z,33.00
2017-05-29T15:13:14.985Z,33.50
2017-05-29T15:15:44.021Z,33.30
2017-05-29T15:18:13.619Z,33.20
2017-05-29T15:20:42.712Z,33.20
2017-05-29T15:23:11.778Z,33.80
2017-05-29T15:25:40.916Z,34.60
2017-05-29T15:28:09.985Z,34.10
2017-05-29T15:30:39.077Z,34.40
2017-05-29T15:33:08.165Z,34.80
2017-05-29T15:35:37.286Z,34.70
2017-05-29T15:38:06.384Z,35.00
2017-05-29T15:40:35.426Z,35.20
2017-05-29T15:43:04.562Z,35.20
2017-05-29T15:45:33.754Z,35.40
2017-05-29T15:48:02.812Z,35.70
2017-05-29T15:50:31.870Z,35.10
2017-05-29T15:53:00.952Z,35.70
2017-05-29T15:55:30.005Z,35.80
2017-05-29T15:57:59.083Z,34.80
2017-05-29T16:00:28.133Z,35.00
2017-05-29T16:02:57.357Z,34.50
2017-05-29T16:05:26.455Z,34.50
2017-05-29T16:07:55.523Z,35.10
2017-05-29T16:10:24.597Z,34.30
2017-05-29T16:12:53.645Z,33.60
2017-05-29T16:15:22.742Z,32.20
2017-05-29T16:17:51.805Z,30.40
2017-05-29T16:20:21.096Z,28.90
2017-05-29T16:22:50.160Z,28.20
2017-05-29T16:25:19.325Z,26.60
2017-05-29T16:27:48.376Z,26.30
2017-05-29T16:30:17.527Z,25.90
2017-05-29T16:32:46.602Z,25.50
2017-05-29T16:35:15.665Z,26.00
2017-05-29T16:37:44.733Z,25.90
2017-05-29T16:40:13.862Z,25.60
2017-05-29T16:42:42.952Z,25.30
2017-05-29T16:45:12.094Z,25.70
2017-05-29T16:47:41.187Z,26.50
2017-05-29T16:50:10.617Z,27.30
2017-05-29T16:52:39.731Z,27.20
2017-05-29T16:55:08.757Z,27.20
2017-05-29T16:57:37.930Z,27.30
2017-05-29T17:00:07.011Z,26.70
2017-05-29T17:02:36.076Z,26.90
2017-05-29T17:05:05.124Z,26.90
2017-05-29T17:07:34.241Z,27.50
2017-05-29T17:10:03.419Z,28.20
2017-05-29T17:12:32.522Z,28.10
2017-05-29T17:15:01.672Z,28.20
2017-05-29T17:17:31.064Z,28.50
2017-05-29T17:20:00.156Z,28.10
2017-05-29T17:22:29.297Z,29.40
2017-05-29T17:24:58.388Z,30.00
2017-05-29T17:27:27.456Z,29.70
2017-05-29T17:29:56.501Z,31.00
2017-05-29T17:32:25.553Z,32.90
2017-05-29T17:34:57.024Z,33.20
2017-05-29T17:37:28.576Z,33.80
2017-05-29T17:39:59.415Z,35.10
2017-05-29T17:42:30.226Z,35.90
2017-05-29T17:44:59.460Z,36.40
2017-05-29T17:47:29.364Z,36.90
2017-05-29T17:50:00.348Z,37.90
2017-05-29T17:52:30.422Z,37.60
2017-05-29T17:55:00.566Z,37.10
2017-05-29T17:57:29.701Z,37.30
2017-05-29T17:59:58.770Z,37.90
2017-05-29T18:02:28.467Z,38.40
2017-05-29T18:04:57.524Z,38.60
2017-05-29T18:07:26.556Z,37.60
2017-05-29T18:09:55.676Z,37.00
2017-05-29T18:12:24.954Z,36.90
2017-05-29T18:14:54.052Z,36.10
2017-05-29T18:17:23.105Z,36.70
2017-05-29T18:19:52.199Z,36.10
2017-05-29T18:22:21.241Z,35.30
2017-05-29T18:24:50.307Z,35.10
2017-05-29T18:27:19.542Z,35.40
2017-05-29T18:29:48.642Z,35.80
2017-05-29T18:32:17.766Z,36.10
2017-05-29T18:34:46.874Z,37.20
2017-05-29T18:37:15.986Z,38.20
2017-05-29T18:39:45.028Z,39.10
2017-05-29T18:42:14.095Z,38.60
2017-05-29T18:44:43.132Z,39.70
2017-05-29T18:47:12.180Z,39.80
2017-05-29T18:49:41.224Z,41.50
2017-05-29T18:52:10.310Z,41.90
2017-05-29T18:54:39.360Z,43.10
2017-05-29T18:57:08.452Z,43.10
2017-05-29T18:59:37.552Z,42.80
2017-05-29T19:02:06.701Z,42.60
2017-05-29T19:04:35.850Z,43.90
2017-05-29T19:07:05.018Z,44.60
2017-05-29T19:09:34.160Z,45.10
2017-05-29T19:12:03.348Z,45.40
2017-05-29T19:14:32.993Z,46.40
2017-05-29T19:17:02.167Z,46.40
2017-05-29T19:19:31.339Z,46.50
2017-05-29T19:22:00.481Z,47.10
2017-05-29T19:24:29.680Z,47.40
2017-05-29T19:26:58.813Z,47.90
2017-05-29T19:29:27.873Z,48.50
2017-05-29T19:31:56.957Z,49.00
2017-05-29T19:34:27.009Z,49.10
2017-05-29T19:36:56.166Z,48.70
2017-05-29T19:39:25.244Z,48.00
2017-05-29T19:41:54.302Z,48.60
2017-05-29T19:44:23.370Z,48.20
2017-05-29T19:46:52.438Z,49.20
2017-05-29T19:49:21.489Z,49.20
2017-05-29T19:51:50.545Z,48.80
2017-05-29T19:54:19.603Z,50.30
2017-05-29T19:56:48.664Z,51.90
2017-05-29T19:59:17.745Z,50.90
2017-05-29T20:01:46.829Z,51.30
2017-05-29T20:04:15.928Z,51.50
2017-05-29T20:06:45.016Z,52.10
2017-05-29T20:09:14.118Z,52.20
2017-05-29T20:11:43.226Z,53.00
2017-05-29T20:14:12.314Z,52.90
2017-05-29T20:16:41.479Z,53.10
2017-05-29T20:19:10.587Z,52.90
2017-05-29T20:21:39.644Z,53.60
2017-05-29T20:24:08.762Z,53.50
2017-05-29T20:26:37.817Z,54.00
2017-05-29T20:29:06.949Z,54.40
2017-05-29T20:31:36.043Z,54.70
2017-05-29T20:34:05.174Z,54.80
2017-05-29T20:36:34.243Z,55.50
2017-05-29T20:39:03.309Z,55.70
2017-05-29T20:41:32.437Z,55.80
2017-05-29T20:44:01.540Z,56.10
2017-05-29T20:46:30.572Z,56.10
2017-05-29T20:48:59.733Z,56.50
2017-05-29T20:51:28.806Z,56.80
2017-05-29T20:53:57.860Z,56.90
2017-05-29T20:56:26.905Z,57.30
2017-05-29T20:58:56.019Z,57.40
2017-05-29T21:01:25.186Z,57.50
2017-05-29T21:03:54.301Z,57.90
2017-05-29T21:06:23.493Z,58.10
2017-05-29T21:08:52.690Z,58.40
2017-05-29T21:11:21.712Z,58.60
2017-05-29T21:13:50.011Z,58.60
2017-05-29T21:16:19.070Z,58.80
2017-05-29T21:18:48.162Z,59.00
2017-05-29T21:21:17.250Z,58.80
2017-05-29T21:23:46.372Z,59.50
2017-05-29T21:26:15.456Z,59.30
2017-05-29T21:28:44.521Z,59.60
2017-05-29T21:31:13.590Z,59.70
2017-05-29T21:33:42.657Z,59.80
2017-05-29T21:36:11.744Z,59.80
2017-05-29T21:38:40.816Z,59.60
2017-05-29T21:41:09.869Z,60.10
2017-05-29T21:43:39.017Z,59.80
2017-05-29T21:46:08.211Z,60.40
2017-05-29T21:48:37.314Z,60.10
2017-05-29T21:51:06.385Z,60.30
2017-05-29T21:53:35.468Z,60.00
2017-05-29T21:56:04.533Z,60.70
2017-05-29T21:58:33.577Z,60.50
2017-05-29T22:01:02.740Z,60.90
2017-05-29T22:03:31.800Z,60.70
2017-05-29T22:06:00.842Z,61.30
2017-05-29T22:08:29.904Z,60.90
2017-05-29T22:10:58.977Z,61.40
2017-05-29T22:13:28.080Z,61.70
2017-05-29T22:15:57.174Z,61.90
2017-05-29T22:18:26.266Z,61.80
2017-05-29T22:20:55.348Z,61.30
2017-05-29T22:23:24.471Z,61.30
2017-05-29T22:25:53.527Z,61.50
2017-05-29T22:28:22.649Z,61.90
2017-05-29T22:30:51.732Z,62.50
2017-05-29T22:33:20.829Z,62.90
2017-05-29T22:35:49.936Z,62.60
2017-05-29T22:38:18.988Z,62.50
2017-05-29T22:40:48.093Z,63.60
2017-05-29T22:43:17.267Z,62.60
2017-05-29T22:45:46.324Z,62.60
2017-05-29T22:48:15.374Z,62.60
2017-05-29T22:50:44.447Z,62.50
2017-05-29T22:53:13.488Z,62.80
2017-05-29T22:55:42.581Z,62.50
2017-05-29T22:58:11.629Z,62.90
2017-05-29T23:00:40.693Z,63.20
2017-05-29T23:03:09.753Z,63.40
2017-05-29T23:05:38.796Z,63.30
2017-05-29T23:08:07.865Z,62.90
2017-05-29T23:10:36.968Z,63.30
2017-05-29T23:13:06.028Z,63.60
2017-05-29T23:15:35.256Z,63.40
2017-05-29T23:18:04.318Z,63.40
2017-05-29T23:20:33.429Z,63.00
2017-05-29T23:23:02.548Z,63.20
2017-05-29T23:25:31.745Z,62.80
2017-05-29T23:28:00.774Z,63.30
2017-05-29T23:30:29.938Z,63.50
2017-05-29T23:32:58.994Z,64.30
2017-05-29T23:35:28.121Z,64.80
2017-05-29T23:37:57.166Z,65.50
2017-05-29T23:40:26.251Z,66.10
2017-05-29T23:42:55.327Z,66.80
2017-05-29T23:45:24.518Z,67.20
2017-05-29T23:47:53.630Z,67.40
2017-05-29T23:50:22.704Z,67.80
2017-05-29T23:52:51.775Z,67.90
2017-05-29T23:55:20.819Z,68.00
2017-05-29T23:57:50.003Z,67.70
